Historical Weather Data

Soule Park Golf Course
1033 East Ojai Ave
Ojai, CA 93023
Date ET
(Inches)
Rain
(Inches)
Temp °F
Humidity
Avg
Wind MPH
Avg
Solar Wm2
Avg
High Ave Low
12/1/17 0.08 0.00 79.9 56.5 39.6 56 2.0 96
12/2/17 0.08 0.00 77.5 56.6 41.3 62 1.7 94
12/3/17 0.07 0.00 72.4 53.2 40.9 68 1.9 90
12/4/17 0.10 0.00 70.9 53.0 34.5 47 3.0 95
12/5/17 0.16 0.00 67.9 58.0 43.8 12 5.9 46
12/6/17 0.06 0.00 64.3 51.0 37.8 32 1.9 53
12/7/17 0.09 0.00 76.9 58.3 40.6 22 2.8 74
12/8/17 0.05 0.00 73.7 52.5 39.4 36 1.6 62
12/9/17 0.08 0.00 84.3 58.2 40.3 30 2.4 74
12/10/17 0.11 0.00 83.3 61.9 45.2 22 3.4 74
12/11/17 0.07 0.00 85.0 58.0 41.6 29 2.1 93
12/12/17 0.07 0.00 84.4 55.3 36.2 28 2.0 84
12/13/17 0.06 0.00 83.6 56.2 40.3 32 1.7 75
12/14/17 0.06 0.00 84.2 54.8 36.6 34 1.8 83
12/15/17 0.05 0.00 77.4 53.3 37.4 38 1.6 72
12/16/17 0.06 0.00 66.0 51.6 41.3 46 2.4 56
12/17/17 0.09 0.00 72.4 53.6 38.4 34 3.4 85
12/18/17 0.06 0.00 71.3 50.0 34.8 38 2.0 88
12/19/17 0.06 0.00 69.1 48.8 33.5 56 1.8 86
12/20/17 0.04 0.00 59.9 45.7 32.6 71 2.0 64
12/21/17 0.06 0.00 62.5 43.2 29.9 50 2.3 89
12/22/17 0.06 0.00 67.7 44.7 27.5 41 1.9 97
12/23/17 0.05 0.00 71.5 49.2 33.6 46 1.5 76
12/24/17 0.06 0.00 75.3 53.2 39.6 43 1.7 83
12/25/17 0.06 0.00 72.7 51.4 36.5 46 1.8 91
12/26/17 0.05 0.00 76.4 53.0 38.8 56 1.7 76
12/27/17 0.06 0.00 81.7 56.2 38.3 53 1.7 87
12/28/17 0.06 0.00 85.0 58.3 39.8 44 1.5 89
12/29/17 0.07 0.00 87.0 59.0 41.5 38 1.5 90
12/30/17 0.06 0.00 77.7 53.9 38.7 50 1.6 84
12/31/17 0.05 0.00 71.5 52.1 39.6 64 1.5 84